sensor_id;sensor_type;location;lat;lon;timestamp;P1;durP1;ratioP1;P2;durP2;ratioP2
69627;SDS011;56850;51.984;5.088;2022-09-03T00:00:19;3.42;;;1.98;;
69627;SDS011;56850;51.984;5.088;2022-09-03T00:02:58;3.38;;;2.10;;
69627;SDS011;56850;51.984;5.088;2022-09-03T00:08:16;5.13;;;2.10;;
69627;SDS011;56850;51.984;5.088;2022-09-03T00:13:24;4.35;;;2.10;;
69627;SDS011;56850;51.984;5.088;2022-09-03T00:15:56;4.20;;;2.10;;
69627;SDS011;56850;51.984;5.088;2022-09-03T00:18:31;6.93;;;1.85;;
69627;SDS011;56850;51.984;5.088;2022-09-03T00:21:04;4.10;;;2.03;;
69627;SDS011;56850;51.984;5.088;2022-09-03T00:23:37;5.00;;;2.00;;
69627;SDS011;56850;51.984;5.088;2022-09-03T00:31:35;5.32;;;1.90;;
69627;SDS011;56850;51.984;5.088;2022-09-03T00:34:16;4.45;;;2.10;;
69627;SDS011;56850;51.984;5.088;2022-09-03T00:36:56;3.80;;;1.90;;
69627;SDS011;56850;51.984;5.088;2022-09-03T00:39:25;4.35;;;1.98;;
69627;SDS011;56850;51.984;5.088;2022-09-03T00:50:08;4.70;;;2.05;;
69627;SDS011;56850;51.984;5.088;2022-09-03T01:01:05;6.07;;;2.00;;
69627;SDS011;56850;51.984;5.088;2022-09-03T01:07:04;3.42;;;1.92;;
69627;SDS011;56850;51.984;5.088;2022-09-03T01:09:52;3.83;;;2.05;;
69627;SDS011;56850;51.984;5.088;2022-09-03T01:12:29;3.90;;;1.90;;
69627;SDS011;56850;51.984;5.088;2022-09-03T01:15:28;4.40;;;2.03;;
69627;SDS011;56850;51.984;5.088;2022-09-03T01:18:17;3.65;;;2.20;;
69627;SDS011;56850;51.984;5.088;2022-09-03T01:20:51;3.35;;;1.83;;
69627;SDS011;56850;51.984;5.088;2022-09-03T01:26:29;3.45;;;1.92;;
69627;SDS011;56850;51.984;5.088;2022-09-03T01:32:05;4.47;;;2.20;;
69627;SDS011;56850;51.984;5.088;2022-09-03T01:37:38;2.85;;;2.00;;
69627;SDS011;56850;51.984;5.088;2022-09-03T01:40:41;3.85;;;2.20;;
69627;SDS011;56850;51.984;5.088;2022-09-03T01:43:56;4.10;;;2.00;;
69627;SDS011;56850;51.984;5.088;2022-09-03T01:46:35;5.63;;;1.88;;
69627;SDS011;56850;51.984;5.088;2022-09-03T01:49:21;5.50;;;1.90;;
69627;SDS011;56850;51.984;5.088;2022-09-03T01:52:02;4.80;;;2.10;;
69627;SDS011;56850;51.984;5.088;2022-09-03T01:54:43;6.25;;;1.77;;
69627;SDS011;56850;51.984;5.088;2022-09-03T01:57:34;3.88;;;2.10;;
69627;SDS011;56850;51.984;5.088;2022-09-03T02:00:08;4.18;;;2.33;;
69627;SDS011;56850;51.984;5.088;2022-09-03T02:02:40;8.73;;;2.30;;
69627;SDS011;56850;51.984;5.088;2022-09-03T02:08:05;2.70;;;1.90;;
69627;SDS011;56850;51.984;5.088;2022-09-03T02:13:19;3.92;;;2.22;;
69627;SDS011;56850;51.984;5.088;2022-09-03T02:15:52;3.50;;;2.03;;
69627;SDS011;56850;51.984;5.088;2022-09-03T02:18:29;4.22;;;2.33;;
69627;SDS011;56850;51.984;5.088;2022-09-03T02:20:58;4.22;;;2.03;;
69627;SDS011;56850;51.984;5.088;2022-09-03T02:23:26;4.32;;;2.20;;
69627;SDS011;56850;51.984;5.088;2022-09-03T02:25:56;5.95;;;2.13;;
69627;SDS011;56850;51.984;5.088;2022-09-03T02:28:25;5.95;;;2.20;;
69627;SDS011;56850;51.984;5.088;2022-09-03T02:30:54;5.57;;;2.20;;
69627;SDS011;56850;51.984;5.088;2022-09-03T02:33:22;4.97;;;2.10;;
69627;SDS011;56850;51.984;5.088;2022-09-03T02:35:49;6.70;;;2.30;;
69627;SDS011;56850;51.984;5.088;2022-09-03T02:38:21;3.67;;;2.47;;
69627;SDS011;56850;51.984;5.088;2022-09-03T02:40:53;3.42;;;2.13;;
69627;SDS011;56850;51.984;5.088;2022-09-03T02:43:23;7.55;;;2.50;;
69627;SDS011;56850;51.984;5.088;2022-09-03T02:45:58;3.33;;;2.08;;
69627;SDS011;56850;51.984;5.088;2022-09-03T02:48:28;3.35;;;2.00;;
69627;SDS011;56850;51.984;5.088;2022-09-03T02:50:55;5.82;;;2.17;;
69627;SDS011;56850;51.984;5.088;2022-09-03T02:53:22;5.57;;;2.80;;
69627;SDS011;56850;51.984;5.088;2022-09-03T02:55:49;3.45;;;2.17;;
69627;SDS011;56850;51.984;5.088;2022-09-03T02:58:16;5.03;;;2.03;;
69627;SDS011;56850;51.984;5.088;2022-09-03T03:00:42;2.95;;;1.92;;
69627;SDS011;56850;51.984;5.088;2022-09-03T03:03:10;6.57;;;2.15;;
69627;SDS011;56850;51.984;5.088;2022-09-03T03:05:48;8.37;;;2.13;;
69627;SDS011;56850;51.984;5.088;2022-09-03T03:08:21;7.68;;;2.55;;
69627;SDS011;56850;51.984;5.088;2022-09-03T03:10:51;4.00;;;2.22;;
69627;SDS011;56850;51.984;5.088;2022-09-03T03:13:19;4.38;;;2.05;;
69627;SDS011;56850;51.984;5.088;2022-09-03T03:15:47;4.82;;;2.20;;
69627;SDS011;56850;51.984;5.088;2022-09-03T03:18:15;5.22;;;2.00;;
69627;SDS011;56850;51.984;5.088;2022-09-03T03:20:42;3.78;;;1.92;;
69627;SDS011;56850;51.984;5.088;2022-09-03T03:23:09;3.80;;;2.20;;
69627;SDS011;56850;51.984;5.088;2022-09-03T03:25:37;3.92;;;2.10;;
69627;SDS011;56850;51.984;5.088;2022-09-03T03:28:05;4.30;;;1.77;;
69627;SDS011;56850;51.984;5.088;2022-09-03T03:30:33;5.70;;;2.20;;
69627;SDS011;56850;51.984;5.088;2022-09-03T03:33:03;4.40;;;2.28;;
69627;SDS011;56850;51.984;5.088;2022-09-03T03:35:30;5.43;;;2.05;;
69627;SDS011;56850;51.984;5.088;2022-09-03T03:37:57;4.05;;;2.10;;
69627;SDS011;56850;51.984;5.088;2022-09-03T03:40:24;4.55;;;2.03;;
69627;SDS011;56850;51.984;5.088;2022-09-03T03:42:52;2.83;;;2.00;;
69627;SDS011;56850;51.984;5.088;2022-09-03T03:45:20;4.47;;;2.05;;
69627;SDS011;56850;51.984;5.088;2022-09-03T03:47:47;7.07;;;2.05;;
69627;SDS011;56850;51.984;5.088;2022-09-03T03:50:14;4.70;;;2.30;;
69627;SDS011;56850;51.984;5.088;2022-09-03T03:52:42;6.55;;;2.15;;
69627;SDS011;56850;51.984;5.088;2022-09-03T03:55:09;4.73;;;2.13;;
69627;SDS011;56850;51.984;5.088;2022-09-03T03:57:41;3.25;;;1.92;;
69627;SDS011;56850;51.984;5.088;2022-09-03T04:00:08;5.30;;;2.38;;
69627;SDS011;56850;51.984;5.088;2022-09-03T04:02:41;4.65;;;2.08;;
69627;SDS011;56850;51.984;5.088;2022-09-03T04:05:08;4.97;;;2.20;;
69627;SDS011;56850;51.984;5.088;2022-09-03T04:07:36;4.17;;;2.33;;
69627;SDS011;56850;51.984;5.088;2022-09-03T04:10:03;4.43;;;2.20;;
69627;SDS011;56850;51.984;5.088;2022-09-03T04:12:30;3.20;;;2.13;;
69627;SDS011;56850;51.984;5.088;2022-09-03T04:14:58;6.00;;;2.20;;
69627;SDS011;56850;51.984;5.088;2022-09-03T04:17:25;3.15;;;2.10;;
69627;SDS011;56850;51.984;5.088;2022-09-03T04:19:53;3.03;;;2.10;;
69627;SDS011;56850;51.984;5.088;2022-09-03T04:22:20;5.05;;;2.22;;
69627;SDS011;56850;51.984;5.088;2022-09-03T04:24:47;8.48;;;2.50;;
69627;SDS011;56850;51.984;5.088;2022-09-03T04:27:14;3.13;;;2.00;;
69627;SDS011;56850;51.984;5.088;2022-09-03T04:29:41;3.15;;;2.15;;
69627;SDS011;56850;51.984;5.088;2022-09-03T04:32:08;3.40;;;2.20;;
69627;SDS011;56850;51.984;5.088;2022-09-03T04:34:54;5.10;;;2.50;;
69627;SDS011;56850;51.984;5.088;2022-09-03T04:37:21;3.58;;;2.20;;
69627;SDS011;56850;51.984;5.088;2022-09-03T04:39:48;3.45;;;2.10;;
69627;SDS011;56850;51.984;5.088;2022-09-03T04:42:15;4.68;;;2.50;;
69627;SDS011;56850;51.984;5.088;2022-09-03T04:44:41;5.00;;;2.37;;
69627;SDS011;56850;51.984;5.088;2022-09-03T04:47:08;4.00;;;2.10;;
69627;SDS011;56850;51.984;5.088;2022-09-03T04:49:35;3.40;;;2.20;;
69627;SDS011;56850;51.984;5.088;2022-09-03T04:52:02;3.13;;;2.40;;
69627;SDS011;56850;51.984;5.088;2022-09-03T04:54:29;3.45;;;2.22;;
69627;SDS011;56850;51.984;5.088;2022-09-03T04:56:56;4.83;;;2.03;;
69627;SDS011;56850;51.984;5.088;2022-09-03T04:59:23;7.18;;;2.30;;
69627;SDS011;56850;51.984;5.088;2022-09-03T05:01:50;2.72;;;2.00;;
69627;SDS011;56850;51.984;5.088;2022-09-03T05:04:22;4.07;;;2.38;;
69627;SDS011;56850;51.984;5.088;2022-09-03T05:06:49;3.42;;;2.50;;
69627;SDS011;56850;51.984;5.088;2022-09-03T05:09:16;4.27;;;2.37;;
69627;SDS011;56850;51.984;5.088;2022-09-03T05:11:43;4.18;;;2.55;;
69627;SDS011;56850;51.984;5.088;2022-09-03T05:14:10;5.35;;;2.25;;
69627;SDS011;56850;51.984;5.088;2022-09-03T05:16:38;3.42;;;2.28;;
69627;SDS011;56850;51.984;5.088;2022-09-03T05:19:05;3.20;;;2.33;;
69627;SDS011;56850;51.984;5.088;2022-09-03T05:21:33;3.73;;;2.03;;
69627;SDS011;56850;51.984;5.088;2022-09-03T05:24:03;7.05;;;2.10;;
69627;SDS011;56850;51.984;5.088;2022-09-03T05:26:32;4.68;;;2.05;;
69627;SDS011;56850;51.984;5.088;2022-09-03T05:29:03;2.95;;;2.10;;
69627;SDS011;56850;51.984;5.088;2022-09-03T05:31:33;4.68;;;2.22;;
69627;SDS011;56850;51.984;5.088;2022-09-03T05:34:05;3.47;;;1.97;;
69627;SDS011;56850;51.984;5.088;2022-09-03T05:36:33;5.05;;;2.47;;
69627;SDS011;56850;51.984;5.088;2022-09-03T05:39:02;5.65;;;2.20;;
69627;SDS011;56850;51.984;5.088;2022-09-03T05:41:30;7.78;;;1.95;;
69627;SDS011;56850;51.984;5.088;2022-09-03T05:43:59;5.35;;;2.20;;
69627;SDS011;56850;51.984;5.088;2022-09-03T05:46:28;3.90;;;2.20;;
69627;SDS011;56850;51.984;5.088;2022-09-03T05:48:59;2.97;;;2.20;;
69627;SDS011;56850;51.984;5.088;2022-09-03T05:51:28;4.15;;;2.13;;
69627;SDS011;56850;51.984;5.088;2022-09-03T05:53:56;4.55;;;2.45;;
69627;SDS011;56850;51.984;5.088;2022-09-03T05:56:24;7.00;;;2.40;;
69627;SDS011;56850;51.984;5.088;2022-09-03T05:58:53;2.97;;;2.30;;
69627;SDS011;56850;51.984;5.088;2022-09-03T06:01:23;3.13;;;1.90;;
69627;SDS011;56850;51.984;5.088;2022-09-03T06:03:58;4.43;;;2.28;;
69627;SDS011;56850;51.984;5.088;2022-09-03T06:06:27;2.40;;;2.20;;
69627;SDS011;56850;51.984;5.088;2022-09-03T06:08:58;3.95;;;2.00;;
69627;SDS011;56850;51.984;5.088;2022-09-03T06:11:27;4.10;;;2.07;;
69627;SDS011;56850;51.984;5.088;2022-09-03T06:13:55;4.28;;;2.03;;
69627;SDS011;56850;51.984;5.088;2022-09-03T06:16:23;6.75;;;2.30;;
69627;SDS011;56850;51.984;5.088;2022-09-03T06:18:58;3.80;;;2.22;;
69627;SDS011;56850;51.984;5.088;2022-09-03T06:21:25;3.55;;;2.40;;
69627;SDS011;56850;51.984;5.088;2022-09-03T06:23:53;3.53;;;2.10;;
69627;SDS011;56850;51.984;5.088;2022-09-03T06:26:25;7.88;;;2.38;;
69627;SDS011;56850;51.984;5.088;2022-09-03T06:28:55;3.55;;;2.28;;
69627;SDS011;56850;51.984;5.088;2022-09-03T06:31:22;4.35;;;2.40;;
69627;SDS011;56850;51.984;5.088;2022-09-03T06:33:50;6.97;;;2.30;;
69627;SDS011;56850;51.984;5.088;2022-09-03T06:36:20;3.27;;;2.30;;
69627;SDS011;56850;51.984;5.088;2022-09-03T06:38:50;3.13;;;2.38;;
69627;SDS011;56850;51.984;5.088;2022-09-03T06:41:25;3.67;;;2.60;;
69627;SDS011;56850;51.984;5.088;2022-09-03T06:44:02;4.13;;;2.10;;
69627;SDS011;56850;51.984;5.088;2022-09-03T06:46:32;4.55;;;2.10;;
69627;SDS011;56850;51.984;5.088;2022-09-03T06:49:00;4.03;;;2.60;;
69627;SDS011;56850;51.984;5.088;2022-09-03T06:51:28;2.80;;;2.00;;
69627;SDS011;56850;51.984;5.088;2022-09-03T06:54:00;5.32;;;2.40;;
69627;SDS011;56850;51.984;5.088;2022-09-03T06:56:32;3.55;;;2.17;;
69627;SDS011;56850;51.984;5.088;2022-09-03T06:59:07;3.13;;;2.33;;
69627;SDS011;56850;51.984;5.088;2022-09-03T07:01:38;5.17;;;2.10;;
69627;SDS011;56850;51.984;5.088;2022-09-03T07:04:11;5.25;;;1.98;;
69627;SDS011;56850;51.984;5.088;2022-09-03T07:06:39;4.03;;;2.30;;
69627;SDS011;56850;51.984;5.088;2022-09-03T07:09:08;6.07;;;2.15;;
69627;SDS011;56850;51.984;5.088;2022-09-03T07:11:37;5.50;;;2.25;;
69627;SDS011;56850;51.984;5.088;2022-09-03T07:14:12;8.07;;;2.47;;
69627;SDS011;56850;51.984;5.088;2022-09-03T07:16:40;4.13;;;2.38;;
69627;SDS011;56850;51.984;5.088;2022-09-03T07:19:08;3.65;;;1.80;;
69627;SDS011;56850;51.984;5.088;2022-09-03T07:21:35;4.07;;;1.98;;
69627;SDS011;56850;51.984;5.088;2022-09-03T07:24:03;5.32;;;2.10;;
69627;SDS011;56850;51.984;5.088;2022-09-03T07:26:40;10.00;;;2.10;;
69627;SDS011;56850;51.984;5.088;2022-09-03T07:29:13;2.42;;;1.90;;
69627;SDS011;56850;51.984;5.088;2022-09-03T07:31:45;5.45;;;2.50;;
69627;SDS011;56850;51.984;5.088;2022-09-03T07:34:12;3.75;;;2.13;;
69627;SDS011;56850;51.984;5.088;2022-09-03T07:36:43;3.17;;;2.20;;
69627;SDS011;56850;51.984;5.088;2022-09-03T07:39:17;6.57;;;2.00;;
69627;SDS011;56850;51.984;5.088;2022-09-03T07:41:44;5.35;;;2.13;;
69627;SDS011;56850;51.984;5.088;2022-09-03T07:44:12;5.20;;;2.15;;
69627;SDS011;56850;51.984;5.088;2022-09-03T07:46:41;5.55;;;1.98;;
69627;SDS011;56850;51.984;5.088;2022-09-03T07:49:10;3.38;;;2.25;;
69627;SDS011;56850;51.984;5.088;2022-09-03T07:51:37;7.05;;;2.15;;
69627;SDS011;56850;51.984;5.088;2022-09-03T07:54:06;3.55;;;1.98;;
69627;SDS011;56850;51.984;5.088;2022-09-03T07:56:36;3.13;;;1.95;;
69627;SDS011;56850;51.984;5.088;2022-09-03T07:59:04;6.63;;;2.30;;
69627;SDS011;56850;51.984;5.088;2022-09-03T08:01:32;5.70;;;1.90;;
69627;SDS011;56850;51.984;5.088;2022-09-03T08:04:00;33.15;;;2.88;;
69627;SDS011;56850;51.984;5.088;2022-09-03T08:06:29;6.60;;;2.00;;
69627;SDS011;56850;51.984;5.088;2022-09-03T08:08:57;3.35;;;2.03;;
69627;SDS011;56850;51.984;5.088;2022-09-03T08:11:30;4.50;;;2.10;;
69627;SDS011;56850;51.984;5.088;2022-09-03T08:14:01;2.95;;;2.10;;
69627;SDS011;56850;51.984;5.088;2022-09-03T08:16:39;5.07;;;2.10;;
69627;SDS011;56850;51.984;5.088;2022-09-03T08:19:09;4.97;;;1.83;;
69627;SDS011;56850;51.984;5.088;2022-09-03T08:21:37;5.32;;;2.30;;
69627;SDS011;56850;51.984;5.088;2022-09-03T08:24:07;5.07;;;1.98;;
69627;SDS011;56850;51.984;5.088;2022-09-03T08:26:37;3.88;;;2.30;;
69627;SDS011;56850;51.984;5.088;2022-09-03T08:29:11;3.30;;;1.88;;
69627;SDS011;56850;51.984;5.088;2022-09-03T08:31:38;4.35;;;2.30;;
69627;SDS011;56850;51.984;5.088;2022-09-03T08:34:05;5.95;;;2.22;;
69627;SDS011;56850;51.984;5.088;2022-09-03T08:36:33;6.65;;;2.00;;
69627;SDS011;56850;51.984;5.088;2022-09-03T08:39:03;3.42;;;2.13;;
69627;SDS011;56850;51.984;5.088;2022-09-03T08:44:30;3.70;;;2.20;;
69627;SDS011;56850;51.984;5.088;2022-09-03T08:54:57;5.55;;;1.83;;
69627;SDS011;56850;51.984;5.088;2022-09-03T09:06:20;8.15;;;2.30;;
69627;SDS011;56850;51.984;5.088;2022-09-03T09:14:38;3.97;;;2.00;;
69627;SDS011;56850;51.984;5.088;2022-09-03T09:17:18;3.97;;;1.90;;
69627;SDS011;56850;51.984;5.088;2022-09-03T09:19:56;5.15;;;2.10;;
69627;SDS011;56850;51.984;5.088;2022-09-03T09:22:46;2.55;;;1.95;;
69627;SDS011;56850;51.984;5.088;2022-09-03T09:25:17;6.78;;;2.22;;
69627;SDS011;56850;51.984;5.088;2022-09-03T09:28:33;3.15;;;1.80;;
69627;SDS011;56850;51.984;5.088;2022-09-03T09:30:46;4.50;;;2.03;;
69627;SDS011;56850;51.984;5.088;2022-09-03T09:33:15;8.98;;;2.17;;
69627;SDS011;56850;51.984;5.088;2022-09-03T09:35:43;7.38;;;2.20;;
69627;SDS011;56850;51.984;5.088;2022-09-03T09:38:11;5.72;;;2.00;;
69627;SDS011;56850;51.984;5.088;2022-09-03T09:40:42;4.18;;;2.05;;
69627;SDS011;56850;51.984;5.088;2022-09-03T09:43:14;3.45;;;2.20;;
69627;SDS011;56850;51.984;5.088;2022-09-03T09:45:45;4.78;;;1.95;;
69627;SDS011;56850;51.984;5.088;2022-09-03T09:51:31;4.90;;;1.95;;
69627;SDS011;56850;51.984;5.088;2022-09-03T09:57:00;4.53;;;1.70;;
69627;SDS011;56850;51.984;5.088;2022-09-03T09:59:35;3.33;;;1.83;;
69627;SDS011;56850;51.984;5.088;2022-09-03T10:02:11;3.13;;;1.85;;
69627;SDS011;56850;51.984;5.088;2022-09-03T10:04:47;9.18;;;1.90;;
69627;SDS011;56850;51.984;5.088;2022-09-03T10:10:02;4.82;;;1.77;;
69627;SDS011;56850;51.984;5.088;2022-09-03T10:12:44;3.83;;;1.92;;
69627;SDS011;56850;51.984;5.088;2022-09-03T10:15:22;5.72;;;1.70;;
69627;SDS011;56850;51.984;5.088;2022-09-03T10:17:59;4.50;;;1.73;;
69627;SDS011;56850;51.984;5.088;2022-09-03T10:20:44;6.45;;;1.90;;
69627;SDS011;56850;51.984;5.088;2022-09-03T10:23:26;4.75;;;1.73;;
69627;SDS011;56850;51.984;5.088;2022-09-03T10:25:59;4.75;;;1.50;;
69627;SDS011;56850;51.984;5.088;2022-09-03T10:28:40;4.88;;;1.88;;
69627;SDS011;56850;51.984;5.088;2022-09-03T10:34:11;11.57;;;2.17;;
69627;SDS011;56850;51.984;5.088;2022-09-03T10:36:57;11.93;;;2.20;;
69627;SDS011;56850;51.984;5.088;2022-09-03T10:39:41;3.60;;;1.73;;
69627;SDS011;56850;51.984;5.088;2022-09-03T10:42:34;6.00;;;1.95;;
69627;SDS011;56850;51.984;5.088;2022-09-03T10:51:26;3.13;;;1.60;;
69627;SDS011;56850;51.984;5.088;2022-09-03T10:56:53;2.83;;;1.63;;
69627;SDS011;56850;51.984;5.088;2022-09-03T10:59:38;4.37;;;2.17;;
69627;SDS011;56850;51.984;5.088;2022-09-03T11:02:27;16.17;;;1.88;;
69627;SDS011;56850;51.984;5.088;2022-09-03T11:05:22;10.30;;;2.67;;
69627;SDS011;56850;51.984;5.088;2022-09-03T11:10:45;8.88;;;2.10;;
69627;SDS011;56850;51.984;5.088;2022-09-03T11:13:37;5.20;;;1.90;;
69627;SDS011;56850;51.984;5.088;2022-09-03T11:16:27;4.43;;;1.95;;
69627;SDS011;56850;51.984;5.088;2022-09-03T11:19:04;4.22;;;1.85;;
69627;SDS011;56850;51.984;5.088;2022-09-03T11:21:33;4.55;;;1.80;;
69627;SDS011;56850;51.984;5.088;2022-09-03T11:27:21;10.47;;;1.83;;
69627;SDS011;56850;51.984;5.088;2022-09-03T11:35:16;9.07;;;2.10;;
69627;SDS011;56850;51.984;5.088;2022-09-03T11:37:58;7.63;;;2.00;;
69627;SDS011;56850;51.984;5.088;2022-09-03T11:40:28;5.27;;;1.90;;
69627;SDS011;56850;51.984;5.088;2022-09-03T11:46:09;4.38;;;1.58;;
69627;SDS011;56850;51.984;5.088;2022-09-03T11:48:44;4.45;;;1.80;;
69627;SDS011;56850;51.984;5.088;2022-09-03T11:53:59;6.97;;;2.37;;
69627;SDS011;56850;51.984;5.088;2022-09-03T11:56:28;6.47;;;2.20;;
69627;SDS011;56850;51.984;5.088;2022-09-03T11:58:58;7.88;;;2.15;;
69627;SDS011;56850;51.984;5.088;2022-09-03T12:01:27;4.28;;;1.98;;
69627;SDS011;56850;51.984;5.088;2022-09-03T12:04:05;7.63;;;1.80;;
69627;SDS011;56850;51.984;5.088;2022-09-03T12:18:30;5.15;;;1.77;;
69627;SDS011;56850;51.984;5.088;2022-09-03T12:21:00;8.77;;;1.90;;
69627;SDS011;56850;51.984;5.088;2022-09-03T12:26:09;4.00;;;1.85;;
69627;SDS011;56850;51.984;5.088;2022-09-03T12:28:47;5.60;;;2.08;;
69627;SDS011;56850;51.984;5.088;2022-09-03T12:31:18;8.85;;;1.85;;
69627;SDS011;56850;51.984;5.088;2022-09-03T12:33:49;10.53;;;2.07;;
69627;SDS011;56850;51.984;5.088;2022-09-03T12:36:21;4.65;;;1.80;;
69627;SDS011;56850;51.984;5.088;2022-09-03T12:38:48;4.18;;;1.98;;
69627;SDS011;56850;51.984;5.088;2022-09-03T12:41:38;9.82;;;2.00;;
69627;SDS011;56850;51.984;5.088;2022-09-03T12:44:28;6.43;;;1.70;;
69627;SDS011;56850;51.984;5.088;2022-09-03T12:50:06;5.07;;;2.10;;
69627;SDS011;56850;51.984;5.088;2022-09-03T12:52:55;5.75;;;1.70;;
69627;SDS011;56850;51.984;5.088;2022-09-03T12:55:35;4.63;;;1.60;;
69627;SDS011;56850;51.984;5.088;2022-09-03T13:00:54;5.23;;;1.83;;
69627;SDS011;56850;51.984;5.088;2022-09-03T13:03:33;5.82;;;1.80;;
69627;SDS011;56850;51.984;5.088;2022-09-03T13:06:12;5.55;;;1.88;;
69627;SDS011;56850;51.984;5.088;2022-09-03T13:08:46;3.25;;;1.83;;
69627;SDS011;56850;51.984;5.088;2022-09-03T13:11:21;5.47;;;2.05;;
69627;SDS011;56850;51.984;5.088;2022-09-03T13:14:05;5.47;;;1.90;;
69627;SDS011;56850;51.984;5.088;2022-09-03T13:16:46;4.78;;;1.70;;
69627;SDS011;56850;51.984;5.088;2022-09-03T13:20:39;5.32;;;1.70;;
69627;SDS011;56850;51.984;5.088;2022-09-03T13:31:18;5.40;;;1.50;;
69627;SDS011;56850;51.984;5.088;2022-09-03T13:34:04;3.63;;;2.10;;
69627;SDS011;56850;51.984;5.088;2022-09-03T13:39:19;5.32;;;2.33;;
69627;SDS011;56850;51.984;5.088;2022-09-03T13:41:54;7.67;;;2.13;;
69627;SDS011;56850;51.984;5.088;2022-09-03T13:47:07;4.25;;;2.10;;
69627;SDS011;56850;51.984;5.088;2022-09-03T13:49:43;4.13;;;1.52;;
69627;SDS011;56850;51.984;5.088;2022-09-03T14:00:52;5.18;;;1.70;;
69627;SDS011;56850;51.984;5.088;2022-09-03T14:17:11;6.78;;;1.77;;
69627;SDS011;56850;51.984;5.088;2022-09-03T14:19:59;4.95;;;1.92;;
69627;SDS011;56850;51.984;5.088;2022-09-03T14:25:16;5.30;;;1.98;;
69627;SDS011;56850;51.984;5.088;2022-09-03T14:27:48;5.57;;;2.00;;
69627;SDS011;56850;51.984;5.088;2022-09-03T14:35:37;3.50;;;1.60;;
69627;SDS011;56850;51.984;5.088;2022-09-03T14:38:15;3.72;;;1.85;;
69627;SDS011;56850;51.984;5.088;2022-09-03T14:44:01;7.25;;;1.90;;
69627;SDS011;56850;51.984;5.088;2022-09-03T15:00:46;8.23;;;1.85;;
69627;SDS011;56850;51.984;5.088;2022-09-03T15:12:00;3.70;;;1.63;;
69627;SDS011;56850;51.984;5.088;2022-09-03T15:25:43;4.78;;;1.90;;
69627;SDS011;56850;51.984;5.088;2022-09-03T15:32:00;2.57;;;1.70;;
69627;SDS011;56850;51.984;5.088;2022-09-03T15:37:10;3.97;;;1.92;;
69627;SDS011;56850;51.984;5.088;2022-09-03T15:42:59;6.88;;;1.92;;
69627;SDS011;56850;51.984;5.088;2022-09-03T15:45:37;3.13;;;1.67;;
69627;SDS011;56850;51.984;5.088;2022-09-03T15:53:28;7.65;;;2.00;;
69627;SDS011;56850;51.984;5.088;2022-09-03T15:57:01;4.53;;;1.90;;
69627;SDS011;56850;51.984;5.088;2022-09-03T15:59:20;4.00;;;2.00;;
69627;SDS011;56850;51.984;5.088;2022-09-03T16:02:08;3.42;;;2.20;;
69627;SDS011;56850;51.984;5.088;2022-09-03T16:04:55;3.53;;;1.77;;
69627;SDS011;56850;51.984;5.088;2022-09-03T16:10:07;8.20;;;1.95;;
69627;SDS011;56850;51.984;5.088;2022-09-03T16:12:58;4.57;;;2.10;;
69627;SDS011;56850;51.984;5.088;2022-09-03T16:15:57;7.03;;;2.22;;
69627;SDS011;56850;51.984;5.088;2022-09-03T16:18:29;6.60;;;2.10;;
69627;SDS011;56850;51.984;5.088;2022-09-03T16:21:11;5.28;;;1.90;;
69627;SDS011;56850;51.984;5.088;2022-09-03T16:23:51;2.92;;;1.65;;
69627;SDS011;56850;51.984;5.088;2022-09-03T16:26:31;7.33;;;2.07;;
69627;SDS011;56850;51.984;5.088;2022-09-03T16:29:13;4.40;;;2.13;;
69627;SDS011;56850;51.984;5.088;2022-09-03T16:42:44;4.15;;;1.65;;
69627;SDS011;56850;51.984;5.088;2022-09-03T16:49:06;5.20;;;2.05;;
69627;SDS011;56850;51.984;5.088;2022-09-03T16:56:59;3.47;;;2.30;;
69627;SDS011;56850;51.984;5.088;2022-09-03T17:19:52;7.60;;;2.08;;
69627;SDS011;56850;51.984;5.088;2022-09-03T17:25:31;4.13;;;2.60;;
69627;SDS011;56850;51.984;5.088;2022-09-03T17:30:57;3.60;;;2.13;;
69627;SDS011;56850;51.984;5.088;2022-09-03T17:33:36;5.47;;;2.33;;
69627;SDS011;56850;51.984;5.088;2022-09-03T17:36:25;6.67;;;2.50;;
69627;SDS011;56850;51.984;5.088;2022-09-03T17:42:15;6.97;;;2.50;;
69627;SDS011;56850;51.984;5.088;2022-09-03T17:47:36;4.22;;;2.30;;
69627;SDS011;56850;51.984;5.088;2022-09-03T17:50:30;5.50;;;2.20;;
69627;SDS011;56850;51.984;5.088;2022-09-03T17:53:21;3.97;;;2.00;;
69627;SDS011;56850;51.984;5.088;2022-09-03T17:56:10;10.45;;;2.80;;
69627;SDS011;56850;51.984;5.088;2022-09-03T17:59:01;7.10;;;2.30;;
69627;SDS011;56850;51.984;5.088;2022-09-03T18:01:47;5.93;;;2.35;;
69627;SDS011;56850;51.984;5.088;2022-09-03T18:18:32;3.63;;;2.47;;
69627;SDS011;56850;51.984;5.088;2022-09-03T18:21:04;3.92;;;2.65;;
69627;SDS011;56850;51.984;5.088;2022-09-03T18:23:59;8.32;;;2.47;;
69627;SDS011;56850;51.984;5.088;2022-09-03T18:26:57;5.40;;;2.67;;
69627;SDS011;56850;51.984;5.088;2022-09-03T18:29:56;9.45;;;2.40;;
69627;SDS011;56850;51.984;5.088;2022-09-03T18:32:49;2.83;;;2.27;;
69627;SDS011;56850;51.984;5.088;2022-09-03T18:35:36;5.90;;;2.50;;
69627;SDS011;56850;51.984;5.088;2022-09-03T18:38:26;13.27;;;2.53;;
69627;SDS011;56850;51.984;5.088;2022-09-03T19:12:13;7.20;;;2.70;;
69627;SDS011;56850;51.984;5.088;2022-09-03T19:15:26;7.50;;;2.80;;
69627;SDS011;56850;51.984;5.088;2022-09-03T19:18:29;8.65;;;2.83;;
69627;SDS011;56850;51.984;5.088;2022-09-03T19:21:46;6.50;;;3.25;;
69627;SDS011;56850;51.984;5.088;2022-09-03T19:24:36;7.05;;;3.50;;
69627;SDS011;56850;51.984;5.088;2022-09-03T19:30:32;6.75;;;3.10;;
69627;SDS011;56850;51.984;5.088;2022-09-03T19:33:52;5.35;;;3.35;;
69627;SDS011;56850;51.984;5.088;2022-09-03T19:37:07;5.38;;;3.00;;
69627;SDS011;56850;51.984;5.088;2022-09-03T19:40:13;6.40;;;2.70;;
69627;SDS011;56850;51.984;5.088;2022-09-03T19:52:16;8.15;;;3.17;;
69627;SDS011;56850;51.984;5.088;2022-09-03T19:55:09;6.03;;;2.90;;
69627;SDS011;56850;51.984;5.088;2022-09-03T19:57:59;8.02;;;3.13;;
69627;SDS011;56850;51.984;5.088;2022-09-03T20:01:05;8.48;;;3.38;;
69627;SDS011;56850;51.984;5.088;2022-09-03T20:03:53;5.88;;;3.00;;
69627;SDS011;56850;51.984;5.088;2022-09-03T20:06:42;5.90;;;3.00;;
69627;SDS011;56850;51.984;5.088;2022-09-03T20:09:32;6.75;;;2.95;;
69627;SDS011;56850;51.984;5.088;2022-09-03T20:12:21;7.63;;;2.90;;
69627;SDS011;56850;51.984;5.088;2022-09-03T20:14:51;10.07;;;3.75;;
69627;SDS011;56850;51.984;5.088;2022-09-03T20:17:22;4.28;;;3.30;;
69627;SDS011;56850;51.984;5.088;2022-09-03T20:22:59;10.25;;;3.13;;
69627;SDS011;56850;51.984;5.088;2022-09-03T20:31:54;7.93;;;3.50;;
69627;SDS011;56850;51.984;5.088;2022-09-03T20:37:16;9.73;;;3.47;;
69627;SDS011;56850;51.984;5.088;2022-09-03T20:47:53;7.57;;;3.28;;
69627;SDS011;56850;51.984;5.088;2022-09-03T20:50:49;8.32;;;3.35;;
69627;SDS011;56850;51.984;5.088;2022-09-03T20:53:25;4.65;;;3.20;;
69627;SDS011;56850;51.984;5.088;2022-09-03T20:56:14;4.78;;;3.47;;
69627;SDS011;56850;51.984;5.088;2022-09-03T20:59:02;6.00;;;4.10;;
69627;SDS011;56850;51.984;5.088;2022-09-03T21:10:58;7.10;;;4.35;;
69627;SDS011;56850;51.984;5.088;2022-09-03T21:13:41;7.55;;;4.70;;
69627;SDS011;56850;51.984;5.088;2022-09-03T21:22:26;6.55;;;4.70;;
69627;SDS011;56850;51.984;5.088;2022-09-03T21:25:25;8.10;;;4.80;;
69627;SDS011;56850;51.984;5.088;2022-09-03T21:28:13;8.30;;;4.85;;
69627;SDS011;56850;51.984;5.088;2022-09-03T21:30:53;7.00;;;4.55;;
69627;SDS011;56850;51.984;5.088;2022-09-03T21:33:29;6.40;;;4.65;;
69627;SDS011;56850;51.984;5.088;2022-09-03T21:36:10;6.25;;;4.10;;
69627;SDS011;56850;51.984;5.088;2022-09-03T21:38:53;8.20;;;4.70;;
69627;SDS011;56850;51.984;5.088;2022-09-03T21:41:26;9.55;;;4.70;;
69627;SDS011;56850;51.984;5.088;2022-09-03T21:44:07;9.30;;;4.50;;
69627;SDS011;56850;51.984;5.088;2022-09-03T21:46:55;8.77;;;4.60;;
69627;SDS011;56850;51.984;5.088;2022-09-03T21:49:27;8.05;;;5.20;;
69627;SDS011;56850;51.984;5.088;2022-09-03T21:52:06;10.20;;;4.40;;